sensor_id;sensor_type;location;lat;lon;timestamp;pressure;altitude;pressure_sealevel;temperature;humidity
42411;BME280;28056;51.112;0.984;2023-02-03T00:02:05;101919.85;;;11.21;57.20
42411;BME280;28056;51.112;0.984;2023-02-03T00:04:33;101925.94;;;10.69;57.84
42411;BME280;28056;51.112;0.984;2023-02-03T00:06:59;101919.60;;;10.88;57.30
42411;BME280;28056;51.112;0.984;2023-02-03T00:09:27;101919.98;;;11.02;57.13
42411;BME280;28056;51.112;0.984;2023-02-03T00:11:54;101920.67;;;10.57;57.23
42411;BME280;28056;51.112;0.984;2023-02-03T00:14:22;101934.53;;;9.67;58.97
42411;BME280;28056;51.112;0.984;2023-02-03T00:16:50;101951.14;;;10.49;57.78
42411;BME280;28056;51.112;0.984;2023-02-03T00:19:17;101964.16;;;9.73;59.73
42411;BME280;28056;51.112;0.984;2023-02-03T00:21:44;101963.45;;;9.02;60.48
42411;BME280;28056;51.112;0.984;2023-02-03T00:24:11;101961.82;;;9.81;59.59
42411;BME280;28056;51.112;0.984;2023-02-03T00:26:41;101969.74;;;8.28;64.14
42411;BME280;28056;51.112;0.984;2023-02-03T00:29:08;101975.07;;;8.87;63.74
42411;BME280;28056;51.112;0.984;2023-02-03T00:31:36;101972.84;;;8.31;64.89
42411;BME280;28056;51.112;0.984;2023-02-03T00:34:04;101970.21;;;8.34;64.54
42411;BME280;28056;51.112;0.984;2023-02-03T00:36:31;101970.84;;;8.64;63.47
42411;BME280;28056;51.112;0.984;2023-02-03T00:39:00;101967.88;;;8.20;65.64
42411;BME280;28056;51.112;0.984;2023-02-03T00:41:30;101968.81;;;6.93;68.70
42411;BME280;28056;51.112;0.984;2023-02-03T00:43:58;101962.36;;;6.89;68.84
42411;BME280;28056;51.112;0.984;2023-02-03T00:46:25;101956.68;;;7.42;67.91
42411;BME280;28056;51.112;0.984;2023-02-03T00:48:52;101958.47;;;7.29;68.43
42411;BME280;28056;51.112;0.984;2023-02-03T00:51:19;101971.27;;;6.69;70.20
42411;BME280;28056;51.112;0.984;2023-02-03T00:53:47;101975.61;;;8.45;66.30
42411;BME280;28056;51.112;0.984;2023-02-03T00:56:14;101978.06;;;7.67;66.29
42411;BME280;28056;51.112;0.984;2023-02-03T00:58:41;101982.81;;;7.99;67.59
42411;BME280;28056;51.112;0.984;2023-02-03T01:04:48;101989.67;;;9.25;63.72
42411;BME280;28056;51.112;0.984;2023-02-03T01:07:15;101991.99;;;7.65;67.18
42411;BME280;28056;51.112;0.984;2023-02-03T01:09:43;101995.46;;;9.21;64.88
42411;BME280;28056;51.112;0.984;2023-02-03T01:12:10;101997.91;;;8.48;66.05
42411;BME280;28056;51.112;0.984;2023-02-03T01:14:37;101998.63;;;8.95;65.61
42411;BME280;28056;51.112;0.984;2023-02-03T01:17:04;101995.94;;;8.72;67.66
42411;BME280;28056;51.112;0.984;2023-02-03T01:19:31;102000.27;;;8.91;65.76
42411;BME280;28056;51.112;0.984;2023-02-03T01:21:59;102002.53;;;9.21;66.32
42411;BME280;28056;51.112;0.984;2023-02-03T01:24:28;102000.56;;;8.92;67.15
42411;BME280;28056;51.112;0.984;2023-02-03T01:26:55;101992.37;;;8.94;66.19
42411;BME280;28056;51.112;0.984;2023-02-03T01:29:23;101995.73;;;9.09;66.42
42411;BME280;28056;51.112;0.984;2023-02-03T01:31:50;101990.20;;;10.32;63.37
42411;BME280;28056;51.112;0.984;2023-02-03T01:34:17;101998.32;;;10.02;63.80
42411;BME280;28056;51.112;0.984;2023-02-03T01:36:44;101999.81;;;9.52;63.58
42411;BME280;28056;51.112;0.984;2023-02-03T01:39:12;102001.06;;;10.12;63.20
42411;BME280;28056;51.112;0.984;2023-02-03T01:41:40;102002.76;;;9.99;63.01
42411;BME280;28056;51.112;0.984;2023-02-03T01:44:43;101994.95;;;10.85;62.69
42411;BME280;28056;51.112;0.984;2023-02-03T01:47:17;101993.48;;;11.25;60.76
42411;BME280;28056;51.112;0.984;2023-02-03T01:49:52;101991.83;;;11.10;59.53
42411;BME280;28056;51.112;0.984;2023-02-03T01:52:21;101987.94;;;9.71;62.67
42411;BME280;28056;51.112;0.984;2023-02-03T01:54:51;101987.14;;;10.29;62.25
42411;BME280;28056;51.112;0.984;2023-02-03T01:57:23;101978.27;;;10.35;62.67
42411;BME280;28056;51.112;0.984;2023-02-03T01:59:54;101974.78;;;10.33;61.87
42411;BME280;28056;51.112;0.984;2023-02-03T02:02:23;101970.22;;;9.76;63.98
42411;BME280;28056;51.112;0.984;2023-02-03T02:04:55;101972.56;;;10.39;62.96
42411;BME280;28056;51.112;0.984;2023-02-03T02:07:27;101969.72;;;10.33;62.17
42411;BME280;28056;51.112;0.984;2023-02-03T02:09:55;101954.69;;;11.04;61.58
42411;BME280;28056;51.112;0.984;2023-02-03T02:12:23;101954.36;;;11.16;60.69
42411;BME280;28056;51.112;0.984;2023-02-03T02:14:50;101955.62;;;11.26;60.92
42411;BME280;28056;51.112;0.984;2023-02-03T02:17:37;101961.55;;;11.40;59.43
42411;BME280;28056;51.112;0.984;2023-02-03T02:20:29;101960.01;;;11.31;59.75
42411;BME280;28056;51.112;0.984;2023-02-03T02:25:02;101961.29;;;11.71;59.23
42411;BME280;28056;51.112;0.984;2023-02-03T02:28:03;101969.02;;;11.29;58.50
42411;BME280;28056;51.112;0.984;2023-02-03T02:30:47;101951.42;;;11.35;58.80
42411;BME280;28056;51.112;0.984;2023-02-03T02:33:30;101951.27;;;11.12;59.20
42411;BME280;28056;51.112;0.984;2023-02-03T02:36:10;101947.91;;;11.23;59.02
42411;BME280;28056;51.112;0.984;2023-02-03T02:38:47;101944.41;;;10.40;61.11
42411;BME280;28056;51.112;0.984;2023-02-03T02:41:21;101945.68;;;10.53;61.54
42411;BME280;28056;51.112;0.984;2023-02-03T02:43:59;101940.45;;;10.76;61.26
42411;BME280;28056;51.112;0.984;2023-02-03T02:46:34;101939.97;;;10.93;60.35
42411;BME280;28056;51.112;0.984;2023-02-03T02:49:07;101936.60;;;10.78;60.81
42411;BME280;28056;51.112;0.984;2023-02-03T02:51:37;101939.94;;;9.84;62.47
42411;BME280;28056;51.112;0.984;2023-02-03T02:54:07;101933.77;;;9.83;62.77
42411;BME280;28056;51.112;0.984;2023-02-03T02:56:38;101932.66;;;9.26;65.31
42411;BME280;28056;51.112;0.984;2023-02-03T02:59:08;101930.21;;;9.48;64.82
42411;BME280;28056;51.112;0.984;2023-02-03T03:01:36;101928.61;;;9.68;64.35
42411;BME280;28056;51.112;0.984;2023-02-03T03:04:05;101929.06;;;9.32;65.50
42411;BME280;28056;51.112;0.984;2023-02-03T03:06:36;101924.60;;;9.23;66.16
42411;BME280;28056;51.112;0.984;2023-02-03T03:09:09;101935.29;;;9.85;64.83
42411;BME280;28056;51.112;0.984;2023-02-03T03:11:41;101937.40;;;7.85;68.16
42411;BME280;28056;51.112;0.984;2023-02-03T03:14:11;101953.50;;;7.13;71.28
42411;BME280;28056;51.112;0.984;2023-02-03T03:16:44;101962.11;;;7.82;71.59
42411;BME280;28056;51.112;0.984;2023-02-03T03:19:17;101968.67;;;8.49;68.86
42411;BME280;28056;51.112;0.984;2023-02-03T03:21:47;101968.84;;;7.77;70.28
42411;BME280;28056;51.112;0.984;2023-02-03T03:24:21;101973.81;;;8.81;69.55
42411;BME280;28056;51.112;0.984;2023-02-03T03:26:54;101976.07;;;7.90;69.58
42411;BME280;28056;51.112;0.984;2023-02-03T03:29:28;101990.25;;;8.65;68.47
42411;BME280;28056;51.112;0.984;2023-02-03T03:31:56;101989.30;;;8.29;69.78
42411;BME280;28056;51.112;0.984;2023-02-03T03:34:24;101989.43;;;8.40;68.21
42411;BME280;28056;51.112;0.984;2023-02-03T03:36:57;101990.66;;;8.78;67.80
42411;BME280;28056;51.112;0.984;2023-02-03T03:39:34;101983.91;;;8.38;68.78
42411;BME280;28056;51.112;0.984;2023-02-03T03:42:08;101995.87;;;9.03;67.34
42411;BME280;28056;51.112;0.984;2023-02-03T03:44:41;101990.41;;;8.04;69.29
42411;BME280;28056;51.112;0.984;2023-02-03T03:47:13;101985.57;;;8.32;69.67
42411;BME280;28056;51.112;0.984;2023-02-03T03:49:45;101985.41;;;9.03;66.85
42411;BME280;28056;51.112;0.984;2023-02-03T03:52:15;101987.07;;;9.46;66.28
42411;BME280;28056;51.112;0.984;2023-02-03T03:54:46;101985.33;;;10.04;63.94
42411;BME280;28056;51.112;0.984;2023-02-03T03:57:17;101985.36;;;10.17;62.94
42411;BME280;28056;51.112;0.984;2023-02-03T03:59:49;101984.89;;;10.03;63.72
42411;BME280;28056;51.112;0.984;2023-02-03T04:02:18;101981.10;;;9.54;63.10
42411;BME280;28056;51.112;0.984;2023-02-03T04:04:47;101985.58;;;9.12;66.07
42411;BME280;28056;51.112;0.984;2023-02-03T04:07:15;101981.83;;;9.47;65.50
42411;BME280;28056;51.112;0.984;2023-02-03T04:09:43;101978.54;;;8.78;66.65
42411;BME280;28056;51.112;0.984;2023-02-03T04:12:20;101975.71;;;8.42;68.21
42411;BME280;28056;51.112;0.984;2023-02-03T04:14:48;101985.66;;;9.08;66.16
42411;BME280;28056;51.112;0.984;2023-02-03T04:17:16;101989.28;;;9.71;63.52
42411;BME280;28056;51.112;0.984;2023-02-03T04:19:44;101986.35;;;8.84;67.68
42411;BME280;28056;51.112;0.984;2023-02-03T04:22:11;101978.35;;;9.75;64.52
42411;BME280;28056;51.112;0.984;2023-02-03T04:24:39;101980.10;;;9.27;64.87
42411;BME280;28056;51.112;0.984;2023-02-03T04:27:06;101981.84;;;9.04;65.63
42411;BME280;28056;51.112;0.984;2023-02-03T04:29:33;101977.79;;;8.83;65.98
42411;BME280;28056;51.112;0.984;2023-02-03T04:32:00;101974.90;;;8.61;66.88
42411;BME280;28056;51.112;0.984;2023-02-03T04:34:27;101975.74;;;6.98;70.68
42411;BME280;28056;51.112;0.984;2023-02-03T04:36:54;101981.53;;;7.56;71.47
42411;BME280;28056;51.112;0.984;2023-02-03T04:39:22;101980.35;;;8.07;69.91
42411;BME280;28056;51.112;0.984;2023-02-03T04:41:49;101973.57;;;7.48;70.93
42411;BME280;28056;51.112;0.984;2023-02-03T04:44:16;101967.63;;;7.53;71.92
42411;BME280;28056;51.112;0.984;2023-02-03T04:46:43;101964.78;;;7.51;71.76
42411;BME280;28056;51.112;0.984;2023-02-03T04:49:10;101962.40;;;7.18;71.94
42411;BME280;28056;51.112;0.984;2023-02-03T04:51:37;101959.17;;;7.33;72.57
42411;BME280;28056;51.112;0.984;2023-02-03T04:54:04;101968.76;;;7.61;71.22
42411;BME280;28056;51.112;0.984;2023-02-03T04:56:32;101970.07;;;8.55;69.48
42411;BME280;28056;51.112;0.984;2023-02-03T04:58:59;101972.34;;;7.12;74.01
42411;BME280;28056;51.112;0.984;2023-02-03T05:01:26;101974.68;;;6.95;72.98
42411;BME280;28056;51.112;0.984;2023-02-03T05:03:54;101977.17;;;7.39;73.08
42411;BME280;28056;51.112;0.984;2023-02-03T05:06:22;101976.14;;;6.79;74.91
42411;BME280;28056;51.112;0.984;2023-02-03T05:08:50;101975.78;;;6.95;74.46
42411;BME280;28056;51.112;0.984;2023-02-03T05:11:18;101981.38;;;7.07;74.19
42411;BME280;28056;51.112;0.984;2023-02-03T05:13:45;101988.70;;;7.13;74.04
42411;BME280;28056;51.112;0.984;2023-02-03T05:16:14;101992.51;;;7.27;73.07
42411;BME280;28056;51.112;0.984;2023-02-03T05:18:41;101991.74;;;6.73;74.68
42411;BME280;28056;51.112;0.984;2023-02-03T05:21:09;101998.52;;;7.18;73.31
42411;BME280;28056;51.112;0.984;2023-02-03T05:23:36;102006.51;;;7.38;73.38
42411;BME280;28056;51.112;0.984;2023-02-03T05:26:04;102020.52;;;8.12;70.39
42411;BME280;28056;51.112;0.984;2023-02-03T05:28:31;102034.05;;;7.97;71.78
42411;BME280;28056;51.112;0.984;2023-02-03T05:30:59;102037.38;;;7.68;71.45
42411;BME280;28056;51.112;0.984;2023-02-03T05:33:27;102033.53;;;7.69;72.37
42411;BME280;28056;51.112;0.984;2023-02-03T05:35:54;102032.40;;;7.71;71.28
42411;BME280;28056;51.112;0.984;2023-02-03T05:38:38;102035.34;;;7.95;70.42
42411;BME280;28056;51.112;0.984;2023-02-03T05:41:05;102023.95;;;8.22;70.70
42411;BME280;28056;51.112;0.984;2023-02-03T05:43:33;102025.32;;;8.32;70.25
42411;BME280;28056;51.112;0.984;2023-02-03T05:46:01;102020.92;;;8.80;69.36
42411;BME280;28056;51.112;0.984;2023-02-03T05:48:29;102017.98;;;9.12;67.62
42411;BME280;28056;51.112;0.984;2023-02-03T05:50:56;102025.80;;;9.14;66.95
42411;BME280;28056;51.112;0.984;2023-02-03T05:53:25;102026.27;;;9.65;64.94
42411;BME280;28056;51.112;0.984;2023-02-03T05:55:52;102030.64;;;9.55;65.12
42411;BME280;28056;51.112;0.984;2023-02-03T05:58:19;102034.19;;;9.50;64.52
42411;BME280;28056;51.112;0.984;2023-02-03T06:00:46;102032.56;;;9.60;64.24
42411;BME280;28056;51.112;0.984;2023-02-03T06:03:13;102032.27;;;9.14;64.70
42411;BME280;28056;51.112;0.984;2023-02-03T06:05:40;102033.47;;;9.13;64.59
42411;BME280;28056;51.112;0.984;2023-02-03T06:08:08;102027.72;;;9.28;65.14
42411;BME280;28056;51.112;0.984;2023-02-03T06:10:35;102021.98;;;9.04;65.80
42411;BME280;28056;51.112;0.984;2023-02-03T06:13:08;102023.19;;;9.33;64.96
42411;BME280;28056;51.112;0.984;2023-02-03T06:15:35;102030.07;;;9.32;64.66
42411;BME280;28056;51.112;0.984;2023-02-03T06:18:02;102032.24;;;8.84;66.22
42411;BME280;28056;51.112;0.984;2023-02-03T06:20:30;102037.77;;;8.91;66.36
42411;BME280;28056;51.112;0.984;2023-02-03T06:22:57;102032.18;;;9.16;66.92
42411;BME280;28056;51.112;0.984;2023-02-03T06:25:24;102024.88;;;9.58;65.33
42411;BME280;28056;51.112;0.984;2023-02-03T06:27:52;102020.36;;;9.46;64.85
42411;BME280;28056;51.112;0.984;2023-02-03T06:30:20;102021.98;;;9.22;65.03
42411;BME280;28056;51.112;0.984;2023-02-03T06:32:48;102021.84;;;8.79;67.00
42411;BME280;28056;51.112;0.984;2023-02-03T06:35:15;102024.97;;;8.36;68.34
42411;BME280;28056;51.112;0.984;2023-02-03T06:37:43;102020.17;;;8.25;68.75
42411;BME280;28056;51.112;0.984;2023-02-03T06:40:11;102015.30;;;8.66;67.76
42411;BME280;28056;51.112;0.984;2023-02-03T06:42:39;102019.38;;;8.04;69.97
42411;BME280;28056;51.112;0.984;2023-02-03T06:45:07;102017.04;;;8.60;68.17
42411;BME280;28056;51.112;0.984;2023-02-03T06:47:34;102013.65;;;8.12;69.09
42411;BME280;28056;51.112;0.984;2023-02-03T06:50:06;102015.27;;;8.44;69.18
42411;BME280;28056;51.112;0.984;2023-02-03T06:52:33;102017.13;;;8.16;70.19
42411;BME280;28056;51.112;0.984;2023-02-03T06:55:00;102019.25;;;7.46;71.47
42411;BME280;28056;51.112;0.984;2023-02-03T06:58:38;102026.01;;;7.07;74.57
42411;BME280;28056;51.112;0.984;2023-02-03T07:01:06;102029.10;;;6.62;76.41
42411;BME280;28056;51.112;0.984;2023-02-03T07:03:33;102027.11;;;6.68;74.99
42411;BME280;28056;51.112;0.984;2023-02-03T07:06:00;102033.53;;;6.21;75.60
42411;BME280;28056;51.112;0.984;2023-02-03T07:08:27;102035.20;;;5.34;80.45
42411;BME280;28056;51.112;0.984;2023-02-03T07:10:55;102034.73;;;5.11;82.37
42411;BME280;28056;51.112;0.984;2023-02-03T07:13:22;102034.92;;;5.21;82.45
42411;BME280;28056;51.112;0.984;2023-02-03T07:15:50;102032.62;;;5.50;81.31
42411;BME280;28056;51.112;0.984;2023-02-03T07:18:18;102032.18;;;5.16;82.93
42411;BME280;28056;51.112;0.984;2023-02-03T07:20:45;102031.83;;;4.83;83.15
42411;BME280;28056;51.112;0.984;2023-02-03T07:23:12;102028.14;;;5.26;82.89
42411;BME280;28056;51.112;0.984;2023-02-03T07:25:39;102034.55;;;4.75;84.14
42411;BME280;28056;51.112;0.984;2023-02-03T07:28:06;102038.59;;;4.69;85.77
42411;BME280;28056;51.112;0.984;2023-02-03T07:30:33;102039.51;;;5.17;84.79
42411;BME280;28056;51.112;0.984;2023-02-03T07:33:00;102043.54;;;5.01;85.32
42411;BME280;28056;51.112;0.984;2023-02-03T07:35:29;102040.05;;;4.96;84.99
42411;BME280;28056;51.112;0.984;2023-02-03T07:37:57;102042.69;;;4.72;86.52
42411;BME280;28056;51.112;0.984;2023-02-03T07:40:23;102043.94;;;4.83;87.17
42411;BME280;28056;51.112;0.984;2023-02-03T07:42:51;102048.16;;;5.16;85.85
42411;BME280;28056;51.112;0.984;2023-02-03T07:45:19;102051.81;;;5.04;85.07
42411;BME280;28056;51.112;0.984;2023-02-03T07:47:46;102054.04;;;5.27;84.12
42411;BME280;28056;51.112;0.984;2023-02-03T07:50:13;102058.86;;;5.69;83.24
42411;BME280;28056;51.112;0.984;2023-02-03T07:50:15;102058.89;;;5.50;83.24
42411;BME280;28056;51.112;0.984;2023-02-03T07:52:42;102061.89;;;5.79;80.51
42411;BME280;28056;51.112;0.984;2023-02-03T07:55:09;102057.64;;;6.34;78.44
42411;BME280;28056;51.112;0.984;2023-02-03T07:57:36;102058.10;;;6.35;77.78
42411;BME280;28056;51.112;0.984;2023-02-03T08:00:04;102059.07;;;6.51;76.43
42411;BME280;28056;51.112;0.984;2023-02-03T08:02:32;102054.88;;;7.25;74.79
42411;BME280;28056;51.112;0.984;2023-02-03T08:04:59;102050.54;;;6.65;75.72
42411;BME280;28056;51.112;0.984;2023-02-03T08:07:26;102056.21;;;7.00;73.69
42411;BME280;28056;51.112;0.984;2023-02-03T08:09:53;102056.46;;;6.69;74.31
42411;BME280;28056;51.112;0.984;2023-02-03T08:12:20;102062.81;;;6.48;76.66
42411;BME280;28056;51.112;0.984;2023-02-03T08:14:47;102062.45;;;6.48;75.70
42411;BME280;28056;51.112;0.984;2023-02-03T08:17:14;102064.26;;;6.98;74.41
42411;BME280;28056;51.112;0.984;2023-02-03T08:19:41;102066.61;;;7.65;73.23
42411;BME280;28056;51.112;0.984;2023-02-03T08:22:08;102067.99;;;6.68;76.13
42411;BME280;28056;51.112;0.984;2023-02-03T08:24:35;102073.71;;;6.60;75.51
42411;BME280;28056;51.112;0.984;2023-02-03T08:27:02;102073.09;;;8.08;73.36
42411;BME280;28056;51.112;0.984;2023-02-03T08:29:29;102073.25;;;7.62;74.20
42411;BME280;28056;51.112;0.984;2023-02-03T08:31:56;102073.68;;;6.82;74.66
42411;BME280;28056;51.112;0.984;2023-02-03T08:34:24;102076.55;;;6.79;77.33
42411;BME280;28056;51.112;0.984;2023-02-03T08:36:52;102081.94;;;6.46;77.28
42411;BME280;28056;51.112;0.984;2023-02-03T08:39:19;102089.85;;;6.91;76.60
42411;BME280;28056;51.112;0.984;2023-02-03T08:41:46;102094.63;;;7.31;74.32
42411;BME280;28056;51.112;0.984;2023-02-03T08:44:14;102099.61;;;7.24;74.96
42411;BME280;28056;51.112;0.984;2023-02-03T08:46:41;102103.79;;;7.42;72.72
42411;BME280;28056;51.112;0.984;2023-02-03T08:49:09;102108.70;;;7.03;74.61
42411;BME280;28056;51.112;0.984;2023-02-03T08:51:38;102113.75;;;6.83;75.54
42411;BME280;28056;51.112;0.984;2023-02-03T08:54:06;102109.71;;;6.51;76.47
42411;BME280;28056;51.112;0.984;2023-02-03T08:56:33;102113.25;;;8.06;73.52
42411;BME280;28056;51.112;0.984;2023-02-03T08:59:01;102118.75;;;7.46;73.39
42411;BME280;28056;51.112;0.984;2023-02-03T09:01:30;102121.06;;;6.90;74.59
42411;BME280;28056;51.112;0.984;2023-02-03T09:03:57;102127.26;;;7.02;75.97
42411;BME280;28056;51.112;0.984;2023-02-03T09:06:25;102128.09;;;6.94;75.66
42411;BME280;28056;51.112;0.984;2023-02-03T09:08:52;102127.43;;;6.83;77.24
42411;BME280;28056;51.112;0.984;2023-02-03T09:11:19;102129.30;;;6.73;78.15
42411;BME280;28056;51.112;0.984;2023-02-03T09:13:47;102131.40;;;6.90;77.54
42411;BME280;28056;51.112;0.984;2023-02-03T09:16:17;102134.79;;;6.81;77.44
42411;BME280;28056;51.112;0.984;2023-02-03T09:18:46;102135.72;;;6.59;79.33
42411;BME280;28056;51.112;0.984;2023-02-03T09:21:14;102141.57;;;7.22;77.91
42411;BME280;28056;51.112;0.984;2023-02-03T09:23:43;102141.77;;;7.72;76.90
42411;BME280;28056;51.112;0.984;2023-02-03T09:26:12;102141.25;;;7.82;75.27
42411;BME280;28056;51.112;0.984;2023-02-03T09:28:40;102141.76;;;6.56;77.89
42411;BME280;28056;51.112;0.984;2023-02-03T09:31:10;102148.61;;;6.87;76.75
42411;BME280;28056;51.112;0.984;2023-02-03T09:33:39;102153.24;;;6.29;79.76
42411;BME280;28056;51.112;0.984;2023-02-03T09:36:09;102150.34;;;6.22;81.01
42411;BME280;28056;51.112;0.984;2023-02-03T09:38:37;102154.81;;;6.36;82.05
42411;BME280;28056;51.112;0.984;2023-02-03T09:41:13;102155.25;;;6.27;83.02
42411;BME280;28056;51.112;0.984;2023-02-03T09:43:47;102156.30;;;6.16;82.79
42411;BME280;28056;51.112;0.984;2023-02-03T09:46:20;102156.25;;;6.63;82.13
42411;BME280;28056;51.112;0.984;2023-02-03T09:48:52;102169.18;;;6.11;83.15
42411;BME280;28056;51.112;0.984;2023-02-03T09:51:24;102173.56;;;6.04;84.18
42411;BME280;28056;51.112;0.984;2023-02-03T09:53:59;102179.77;;;6.36;84.38
42411;BME280;28056;51.112;0.984;2023-02-03T09:56:32;102179.22;;;6.33;84.90
42411;BME280;28056;51.112;0.984;2023-02-03T09:59:01;102180.08;;;6.27;85.77
42411;BME280;28056;51.112;0.984;2023-02-03T10:01:38;102183.19;;;6.32;86.13
42411;BME280;28056;51.112;0.984;2023-02-03T10:04:17;102194.18;;;6.34;85.20
42411;BME280;28056;51.112;0.984;2023-02-03T10:06:48;102194.72;;;6.24;85.01
42411;BME280;28056;51.112;0.984;2023-02-03T10:09:29;102195.80;;;6.22;84.97
42411;BME280;28056;51.112;0.984;2023-02-03T10:12:15;102195.97;;;6.25;84.62
42411;BME280;28056;51.112;0.984;2023-02-03T10:14:57;102199.43;;;6.02;85.78
42411;BME280;28056;51.112;0.984;2023-02-03T10:17:34;102195.83;;;5.94;87.29
42411;BME280;28056;51.112;0.984;2023-02-03T10:20:10;102207.22;;;6.06;87.60
42411;BME280;28056;51.112;0.984;2023-02-03T10:22:42;102217.71;;;6.46;86.89
42411;BME280;28056;51.112;0.984;2023-02-03T10:25:16;102222.74;;;6.86;84.54
42411;BME280;28056;51.112;0.984;2023-02-03T10:27:45;102224.59;;;6.85;82.48
42411;BME280;28056;51.112;0.984;2023-02-03T10:30:20;102235.95;;;6.58;83.99
42411;BME280;28056;51.112;0.984;2023-02-03T10:32:49;102232.81;;;6.88;84.09
42411;BME280;28056;51.112;0.984;2023-02-03T10:35:17;102234.81;;;6.95;83.20
42411;BME280;28056;51.112;0.984;2023-02-03T10:37:49;102237.31;;;7.36;82.10
42411;BME280;28056;51.112;0.984;2023-02-03T10:40:20;102233.65;;;7.16;80.56
42411;BME280;28056;51.112;0.984;2023-02-03T10:42:50;102249.69;;;7.31;80.42
42411;BME280;28056;51.112;0.984;2023-02-03T10:45:19;102244.64;;;7.16;81.79
42411;BME280;28056;51.112;0.984;2023-02-03T10:47:49;102243.46;;;6.85;82.52
42411;BME280;28056;51.112;0.984;2023-02-03T10:50:18;102250.28;;;7.10;80.10
42411;BME280;28056;51.112;0.984;2023-02-03T10:52:47;102239.12;;;7.44;79.19
42411;BME280;28056;51.112;0.984;2023-02-03T10:55:31;102242.51;;;7.18;81.00
42411;BME280;28056;51.112;0.984;2023-02-03T10:58:07;102236.88;;;7.09;79.29
42411;BME280;28056;51.112;0.984;2023-02-03T11:00:39;102226.77;;;7.24;79.88
42411;BME280;28056;51.112;0.984;2023-02-03T11:03:15;102220.68;;;7.41;78.86
42411;BME280;28056;51.112;0.984;2023-02-03T11:06:03;102222.86;;;7.97;78.01
42411;BME280;28056;51.112;0.984;2023-02-03T11:08:32;102220.49;;;7.97;77.29
42411;BME280;28056;51.112;0.984;2023-02-03T11:11:03;102211.38;;;7.92;78.43
42411;BME280;28056;51.112;0.984;2023-02-03T11:13:30;102208.98;;;7.47;76.46
42411;BME280;28056;51.112;0.984;2023-02-03T11:16:00;102213.10;;;7.61;77.19
42411;BME280;28056;51.112;0.984;2023-02-03T11:18:37;102216.03;;;7.28;78.43
42411;BME280;28056;51.112;0.984;2023-02-03T11:21:08;102224.71;;;7.58;78.63
42411;BME280;28056;51.112;0.984;2023-02-03T11:23:37;102228.63;;;7.84;78.11
42411;BME280;28056;51.112;0.984;2023-02-03T11:26:12;102230.52;;;7.62;76.11
42411;BME280;28056;51.112;0.984;2023-02-03T11:28:43;102231.26;;;7.94;77.40
42411;BME280;28056;51.112;0.984;2023-02-03T11:31:17;102216.09;;;7.89;77.40
42411;BME280;28056;51.112;0.984;2023-02-03T11:33:47;102210.30;;;7.81;78.10
42411;BME280;28056;51.112;0.984;2023-02-03T11:36:16;102215.44;;;7.81;76.44
42411;BME280;28056;51.112;0.984;2023-02-03T11:38:44;102215.10;;;7.87;76.19
42411;BME280;28056;51.112;0.984;2023-02-03T11:41:17;102213.15;;;7.64;77.27
42411;BME280;28056;51.112;0.984;2023-02-03T11:43:45;102213.17;;;8.65;76.08
42411;BME280;28056;51.112;0.984;2023-02-03T11:46:13;102208.70;;;8.60;74.19
42411;BME280;28056;51.112;0.984;2023-02-03T11:48:50;102212.51;;;8.64;73.59
42411;BME280;28056;51.112;0.984;2023-02-03T11:51:34;102219.79;;;8.02;74.30
42411;BME280;28056;51.112;0.984;2023-02-03T11:54:17;102224.39;;;8.06;75.37
42411;BME280;28056;51.112;0.984;2023-02-03T11:57:00;102223.75;;;8.15;74.17
42411;BME280;28056;51.112;0.984;2023-02-03T11:59:47;102230.85;;;8.30;74.03
42411;BME280;28056;51.112;0.984;2023-02-03T12:02:46;102219.73;;;7.76;75.61
42411;BME280;28056;51.112;0.984;2023-02-03T12:05:32;102217.23;;;7.89;75.10
42411;BME280;28056;51.112;0.984;2023-02-03T12:08:09;102216.57;;;7.88;74.86
42411;BME280;28056;51.112;0.984;2023-02-03T12:10:46;102220.97;;;7.99;74.69
42411;BME280;28056;51.112;0.984;2023-02-03T12:13:31;102219.95;;;8.02;73.89
42411;BME280;28056;51.112;0.984;2023-02-03T12:16:14;102219.74;;;8.08;74.98
42411;BME280;28056;51.112;0.984;2023-02-03T12:18:57;102226.66;;;7.91;74.39
42411;BME280;28056;51.112;0.984;2023-02-03T12:21:39;102227.78;;;8.40;74.72
42411;BME280;28056;51.112;0.984;2023-02-03T12:24:18;102224.33;;;8.34;73.33
42411;BME280;28056;51.112;0.984;2023-02-03T12:26:57;102227.52;;;8.42;72.83
42411;BME280;28056;51.112;0.984;2023-02-03T12:29:30;102225.66;;;8.52;72.71
42411;BME280;28056;51.112;0.984;2023-02-03T12:32:06;102219.03;;;8.47;72.33
42411;BME280;28056;51.112;0.984;2023-02-03T12:34:41;102206.35;;;8.50;73.00
42411;BME280;28056;51.112;0.984;2023-02-03T12:37:18;102205.25;;;8.28;72.46
42411;BME280;28056;51.112;0.984;2023-02-03T12:39:51;102208.48;;;8.11;73.54
42411;BME280;28056;51.112;0.984;2023-02-03T12:42:23;102211.11;;;8.28;72.89
42411;BME280;28056;51.112;0.984;2023-02-03T12:44:58;102213.59;;;8.19;73.44
42411;BME280;28056;51.112;0.984;2023-02-03T12:47:33;102216.29;;;8.06;72.06
42411;BME280;28056;51.112;0.984;2023-02-03T12:50:06;102226.64;;;8.43;72.87
42411;BME280;28056;51.112;0.984;2023-02-03T12:52:42;102220.11;;;8.44;72.80
42411;BME280;28056;51.112;0.984;2023-02-03T12:55:19;102210.53;;;8.16;72.31
42411;BME280;28056;51.112;0.984;2023-02-03T12:57:51;102208.51;;;8.64;71.26
42411;BME280;28056;51.112;0.984;2023-02-03T13:00:32;102208.29;;;8.75;71.06
42411;BME280;28056;51.112;0.984;2023-02-03T13:03:11;102213.87;;;9.32;68.98
42411;BME280;28056;51.112;0.984;2023-02-03T13:05:44;102216.18;;;9.33;68.19
42411;BME280;28056;51.112;0.984;2023-02-03T13:08:22;102212.52;;;9.31;67.37
42411;BME280;28056;51.112;0.984;2023-02-03T13:10:54;102218.39;;;9.34;68.08
42411;BME280;28056;51.112;0.984;2023-02-03T13:13:34;102221.39;;;9.29;67.64
42411;BME280;28056;51.112;0.984;2023-02-03T13:16:07;102218.77;;;9.05;68.42
42411;BME280;28056;51.112;0.984;2023-02-03T13:18:40;102216.18;;;8.75;69.03
42411;BME280;28056;51.112;0.984;2023-02-03T13:21:10;102221.25;;;8.94;69.72
42411;BME280;28056;51.112;0.984;2023-02-03T13:23:41;102214.64;;;9.12;67.29